SAZM/MDD METAR and TAF weather

Enter ICAO airport designator
Station Type Date Time Source
SAZM METAR 2018/12/10 08:00 UTC NOAA

SAZM 100800Z 31006KT CAVOK 14/13 Q1011


Station Type Date Time Source
SAZM Decoded METAR 2018/12/10 08:00 UTC NOAA

Mar Del Plata Aerodrome, Argentina (SAZM) 37-56S 057-35W 21M
Dec 10, 2018 - 03:00 AM EST / 2018.12.10 0800 UTC
Wind: from the NW (310 degrees) at 7 MPH (6 KT):0
Visibility: greater than 7 mile(s):0
Temperature: 57 F (14 C)
Dew Point: 55 F (13 C)
Relative Humidity: 93%
Pressure (altimeter): 29.85 in. Hg (1011 hPa)
ob: SAZM 100800Z 31006KT CAVOK 14/13 Q1011
cycle: 8

Station Type Date Time Source
SAZM TAF 2018/12/10 06:03 UTC NOAA

TAF SAZM 100500Z 1006/1106 32015KT CAVOK TX28/0918Z TN12/1010Z
BECMG 1010/1012 VRB03KT
BECMG 1021/1023 02005KT 9999 SCT030


Example: see airport list